createdAt,value
2019-03-21T00:00:34.674Z,91.24
2019-03-21T00:01:34.849Z,91.42
2019-03-21T00:02:35.013Z,91.61
2019-03-21T00:03:35.203Z,91.80
2019-03-21T00:04:35.367Z,91.42
2019-03-21T00:05:35.542Z,91.71
2019-03-21T00:06:35.705Z,91.33
2019-03-21T00:07:35.879Z,91.24
2019-03-21T00:08:36.052Z,91.14
2019-03-21T00:09:36.226Z,91.14
2019-03-21T00:10:36.397Z,91.42
2019-03-21T00:11:36.576Z,91.33
2019-03-21T00:12:36.748Z,90.86
2019-03-21T00:13:36.922Z,91.42
2019-03-21T00:14:37.098Z,91.42
2019-03-21T00:15:37.266Z,90.76
2019-03-21T00:16:37.439Z,90.95
2019-03-21T00:18:37.780Z,91.05
2019-03-21T00:19:37.959Z,90.95
2019-03-21T00:20:38.141Z,90.86
2019-03-21T00:21:38.294Z,90.76
2019-03-21T00:22:38.467Z,90.67
2019-03-21T00:23:38.640Z,90.86
2019-03-21T00:24:38.809Z,90.62
2019-03-21T00:25:38.968Z,91.19
2019-03-21T00:26:39.139Z,91.19
2019-03-21T00:27:39.313Z,91.24
2019-03-21T00:28:39.487Z,91.38
2019-03-21T00:29:39.657Z,92.04
2019-03-21T00:30:39.827Z,92.04
2019-03-21T00:31:47.623Z,92.04
2019-03-21T00:32:40.161Z,91.47
2019-03-21T00:33:40.329Z,91.85
2019-03-21T00:34:40.502Z,91.76
2019-03-21T00:35:40.687Z,91.28
2019-03-21T00:36:40.844Z,91.24
2019-03-21T00:37:41.019Z,91.52
2019-03-21T00:38:41.185Z,91.33
2019-03-21T00:39:41.356Z,91.66
2019-03-21T00:40:43.833Z,91.76
2019-03-21T00:41:41.701Z,91.38
2019-03-21T00:42:41.872Z,91.47
2019-03-21T00:43:42.047Z,91.66
2019-03-21T00:44:42.212Z,92.42
2019-03-21T00:45:42.391Z,92.61
2019-03-21T00:46:42.561Z,92.71
2019-03-21T00:47:42.729Z,93.37
2019-03-21T00:48:42.897Z,93.56
2019-03-21T00:49:43.073Z,93.37
2019-03-21T00:50:43.250Z,93.65
2019-03-21T00:51:43.414Z,93.56
2019-03-21T00:52:43.590Z,93.65
2019-03-21T00:53:43.758Z,93.75
2019-03-21T00:54:43.932Z,93.27
2019-03-21T00:55:44.107Z,93.56
2019-03-21T00:56:44.276Z,93.18
2019-03-21T00:57:44.446Z,93.37
2019-03-21T00:58:44.617Z,93.56
2019-03-21T00:59:44.788Z,93.18
2019-03-21T01:00:44.961Z,92.90
2019-03-21T01:01:45.130Z,93.37
2019-03-21T01:02:45.301Z,93.08
2019-03-21T01:03:45.471Z,92.61
2019-03-21T01:04:45.641Z,92.61
2019-03-21T01:06:45.980Z,92.14
2019-03-21T01:07:46.157Z,92.33
2019-03-21T01:08:46.323Z,92.33
2019-03-21T01:09:46.497Z,92.14
2019-03-21T01:10:46.663Z,91.76
2019-03-21T01:11:46.833Z,91.47
2019-03-21T01:12:47.004Z,91.57
2019-03-21T01:14:47.354Z,92.33
2019-03-21T01:15:47.524Z,92.23
2019-03-21T01:16:47.681Z,92.04
2019-03-21T01:17:47.852Z,91.95
2019-03-21T01:18:48.033Z,92.04
2019-03-21T01:19:48.191Z,92.14
2019-03-21T01:20:48.354Z,92.42
2019-03-21T01:21:48.528Z,92.23
2019-03-21T01:22:48.690Z,91.85
2019-03-21T01:23:48.858Z,92.14
2019-03-21T01:24:49.025Z,93.08
2019-03-21T01:25:49.216Z,92.38
2019-03-21T01:26:49.362Z,93.56
2019-03-21T01:27:49.528Z,93.32
2019-03-21T01:28:49.698Z,93.61
2019-03-21T01:29:49.862Z,93.89
2019-03-21T01:30:50.034Z,94.37
2019-03-21T01:31:54.515Z,94.37
2019-03-21T01:32:50.432Z,93.80
2019-03-21T01:33:50.602Z,94.37
2019-03-21T01:34:50.774Z,93.70
2019-03-21T01:35:50.949Z,94.56
2019-03-21T01:36:51.118Z,93.89
2019-03-21T01:37:51.284Z,94.27
2019-03-21T01:38:51.459Z,94.37
2019-03-21T01:39:51.628Z,93.23
2019-03-21T01:40:51.797Z,93.37
2019-03-21T01:41:51.972Z,93.04
2019-03-21T01:42:52.144Z,92.90
2019-03-21T01:43:52.315Z,92.99
2019-03-21T01:44:52.480Z,92.94
2019-03-21T01:45:52.661Z,93.51
2019-03-21T01:46:52.830Z,93.27
2019-03-21T01:47:52.987Z,93.13
2019-03-21T01:48:53.163Z,92.28
2019-03-21T01:49:53.325Z,93.42
2019-03-21T01:50:53.496Z,93.13
2019-03-21T01:51:53.667Z,93.51
2019-03-21T01:52:53.835Z,93.61
2019-03-21T01:53:54.004Z,93.51
2019-03-21T01:54:54.185Z,93.70
2019-03-21T01:56:54.526Z,93.80
2019-03-21T01:57:54.695Z,94.56
2019-03-21T01:58:54.863Z,95.22
2019-03-21T01:59:55.033Z,95.12
2019-03-21T02:00:55.205Z,95.60
2019-03-21T02:01:55.380Z,95.60
2019-03-21T02:02:55.546Z,95.88
2019-03-21T02:03:55.715Z,95.69
2019-03-21T02:04:55.886Z,95.60
2019-03-21T02:05:56.058Z,95.60
2019-03-21T02:06:56.229Z,94.74
2019-03-21T02:07:56.396Z,94.74
2019-03-21T02:08:56.563Z,94.27
2019-03-21T02:09:56.735Z,94.08
2019-03-21T02:10:56.908Z,93.80
2019-03-21T02:11:57.075Z,94.08
2019-03-21T02:12:57.247Z,94.08
2019-03-21T02:13:57.422Z,94.08
2019-03-21T02:14:57.583Z,94.27
2019-03-21T02:15:59.266Z,94.08
2019-03-21T02:16:57.928Z,94.37
2019-03-21T02:17:58.101Z,94.37
2019-03-21T02:18:58.271Z,94.18
2019-03-21T02:19:58.489Z,94.18
2019-03-21T02:20:58.610Z,94.65
2019-03-21T02:21:58.781Z,94.27
2019-03-21T02:22:58.959Z,94.27
2019-03-21T02:23:59.122Z,94.56
2019-03-21T02:24:59.291Z,94.37
2019-03-21T02:25:59.471Z,94.27
2019-03-21T02:26:59.631Z,93.99
2019-03-21T02:27:59.804Z,94.18
2019-03-21T02:28:59.974Z,94.08
2019-03-21T02:30:00.420Z,94.27
2019-03-21T02:31:00.318Z,93.99
2019-03-21T02:32:00.470Z,94.37
2019-03-21T02:33:00.641Z,94.46
2019-03-21T02:34:00.812Z,94.37
2019-03-21T02:35:00.979Z,94.46
2019-03-21T02:36:01.150Z,94.08
2019-03-21T02:37:01.324Z,94.08
2019-03-21T02:38:01.493Z,94.37
2019-03-21T02:39:01.678Z,94.08
2019-03-21T02:40:01.874Z,93.99
2019-03-21T02:41:02.005Z,94.56
2019-03-21T02:42:02.178Z,94.84
2019-03-21T02:43:02.340Z,95.12
2019-03-21T02:44:02.518Z,95.03
2019-03-21T02:45:08.847Z,95.12
2019-03-21T02:46:02.863Z,94.46
2019-03-21T02:47:03.024Z,94.27
2019-03-21T02:48:03.214Z,94.08
2019-03-21T02:49:03.360Z,94.56
2019-03-21T02:50:03.531Z,95.12
2019-03-21T02:51:03.703Z,95.12
2019-03-21T02:52:03.871Z,95.03
2019-03-21T02:53:04.037Z,95.22
2019-03-21T02:54:04.209Z,94.93
2019-03-21T02:55:04.383Z,95.60
2019-03-21T02:56:04.560Z,95.22
2019-03-21T02:57:04.719Z,94.84
2019-03-21T02:58:04.894Z,94.74
2019-03-21T02:59:05.063Z,94.74
2019-03-21T03:00:05.231Z,94.93
2019-03-21T03:01:05.402Z,95.22
2019-03-21T03:02:05.579Z,94.65
2019-03-21T03:03:05.754Z,94.74
2019-03-21T03:04:05.919Z,94.08
2019-03-21T03:05:06.086Z,93.80
2019-03-21T03:06:06.258Z,94.37
2019-03-21T03:07:06.456Z,94.37
2019-03-21T03:08:06.594Z,94.18
2019-03-21T03:09:06.769Z,94.37
2019-03-21T03:10:06.954Z,94.65
2019-03-21T03:11:10.479Z,94.37
2019-03-21T03:12:07.297Z,94.18
2019-03-21T03:13:07.454Z,94.18
2019-03-21T03:14:07.629Z,94.46
2019-03-21T03:15:21.394Z,94.65
2019-03-21T03:16:07.965Z,94.74
2019-03-21T03:17:08.141Z,93.89
2019-03-21T03:18:08.317Z,94.46
2019-03-21T03:19:08.481Z,94.18
2019-03-21T03:20:08.652Z,94.37
2019-03-21T03:21:08.823Z,94.18
2019-03-21T03:22:09.002Z,94.46
2019-03-21T03:23:09.177Z,94.37
2019-03-21T03:24:09.339Z,94.46
2019-03-21T03:25:09.515Z,94.08
2019-03-21T03:26:09.688Z,95.31
2019-03-21T03:27:09.853Z,95.03
2019-03-21T03:28:10.028Z,94.46
2019-03-21T03:29:10.199Z,94.18
2019-03-21T03:30:10.373Z,93.99
2019-03-21T03:31:10.573Z,94.27
2019-03-21T03:32:10.726Z,94.74
2019-03-21T03:33:10.885Z,94.37
2019-03-21T03:34:11.060Z,94.84
2019-03-21T03:35:11.222Z,94.89
2019-03-21T03:36:11.392Z,95.74
2019-03-21T03:37:11.561Z,95.83
2019-03-21T03:38:11.733Z,96.97
2019-03-21T03:39:11.905Z,98.30
2019-03-21T03:40:12.087Z,98.58
2019-03-21T03:41:12.239Z,98.96
2019-03-21T03:42:12.408Z,98.68
2019-03-21T03:43:12.579Z,99.24
2019-03-21T03:44:12.751Z,99.33
2019-03-21T03:45:12.918Z,99.24
2019-03-21T03:46:13.098Z,99.43
2019-03-21T03:47:13.280Z,99.24
2019-03-21T03:48:13.421Z,99.05
2019-03-21T03:49:13.599Z,99.05
2019-03-21T03:50:13.755Z,99.15
2019-03-21T03:51:13.930Z,98.49
2019-03-21T03:52:14.096Z,98.49
2019-03-21T03:53:14.264Z,97.92
2019-03-21T03:54:14.434Z,97.92
2019-03-21T03:55:14.606Z,97.16
2019-03-21T03:56:14.777Z,97.54
2019-03-21T03:57:14.944Z,97.92
2019-03-21T03:58:15.121Z,98.01
2019-03-21T03:59:15.291Z,97.82
2019-03-21T04:00:15.468Z,97.35
2019-03-21T04:01:15.662Z,97.16
2019-03-21T04:02:15.851Z,97.54
2019-03-21T04:03:16.024Z,96.69
2019-03-21T04:04:16.177Z,97.25
2019-03-21T04:05:16.355Z,97.16
2019-03-21T04:06:16.519Z,97.35
2019-03-21T04:07:16.686Z,97.54
2019-03-21T04:08:16.866Z,97.73
2019-03-21T04:09:17.024Z,97.92
2019-03-21T04:10:17.206Z,97.35
2019-03-21T04:11:17.368Z,97.63
2019-03-21T04:12:17.533Z,97.63
2019-03-21T04:13:17.716Z,97.63
2019-03-21T04:14:17.872Z,97.06
2019-03-21T04:16:18.222Z,96.59
2019-03-21T04:17:18.375Z,96.97
2019-03-21T04:18:18.545Z,97.06
2019-03-21T04:19:18.741Z,97.54
2019-03-21T04:20:18.884Z,97.82
2019-03-21T04:21:19.049Z,98.20
2019-03-21T04:22:19.218Z,99.24
2019-03-21T04:23:19.390Z,98.77
2019-03-21T04:24:19.574Z,98.68
2019-03-21T04:25:19.726Z,98.68
2019-03-21T04:26:19.898Z,98.68
2019-03-21T04:27:20.089Z,98.86
2019-03-21T04:28:20.247Z,98.86
2019-03-21T04:29:20.405Z,98.96
2019-03-21T04:30:20.581Z,98.30
2019-03-21T04:31:20.750Z,98.39
2019-03-21T04:32:20.925Z,98.39
2019-03-21T04:33:22.711Z,97.44
2019-03-21T04:34:21.262Z,97.54
2019-03-21T04:35:21.435Z,97.92
2019-03-21T04:36:21.595Z,97.73
2019-03-21T04:37:21.759Z,97.63
2019-03-21T04:38:21.926Z,97.82
2019-03-21T04:39:22.100Z,97.63
2019-03-21T04:40:22.277Z,98.01
2019-03-21T04:41:22.444Z,97.63
2019-03-21T04:42:22.611Z,98.39
2019-03-21T04:43:22.774Z,97.73
2019-03-21T04:44:22.945Z,98.01
2019-03-21T04:45:23.118Z,97.63
2019-03-21T04:46:23.275Z,97.35
2019-03-21T04:47:23.444Z,97.25
2019-03-21T04:48:23.614Z,97.35
2019-03-21T04:49:23.784Z,97.73
2019-03-21T04:50:23.954Z,97.92
2019-03-21T04:51:24.138Z,98.20
2019-03-21T04:52:24.293Z,97.73
2019-03-21T04:53:26.645Z,97.63
2019-03-21T04:54:24.818Z,96.59
2019-03-21T04:55:24.864Z,96.31
2019-03-21T04:56:25.000Z,96.21
2019-03-21T04:57:25.197Z,96.69
2019-03-21T04:58:25.369Z,96.50
2019-03-21T04:59:25.531Z,96.21
2019-03-21T05:00:25.701Z,96.50
2019-03-21T05:01:25.874Z,97.06
2019-03-21T05:02:26.049Z,97.82
2019-03-21T05:03:26.196Z,98.01
2019-03-21T05:04:26.361Z,98.01
2019-03-21T05:05:26.521Z,98.58
2019-03-21T05:06:26.686Z,98.58
2019-03-21T05:07:26.853Z,98.20
2019-03-21T05:08:27.024Z,98.77
2019-03-21T05:09:27.190Z,98.86
2019-03-21T05:10:27.358Z,98.86
2019-03-21T05:11:27.514Z,98.49
2019-03-21T05:12:27.680Z,98.58
2019-03-21T05:13:27.855Z,98.77
2019-03-21T05:14:28.018Z,98.11
2019-03-21T05:15:28.190Z,98.20
2019-03-21T05:16:28.365Z,98.58
2019-03-21T05:17:28.529Z,98.20
2019-03-21T05:18:28.701Z,98.11
2019-03-21T05:19:28.867Z,98.39
2019-03-21T05:20:29.040Z,98.77
2019-03-21T05:21:29.233Z,98.11
2019-03-21T05:22:29.375Z,98.01
2019-03-21T05:23:29.546Z,96.78
2019-03-21T05:24:29.719Z,96.97
2019-03-21T05:25:29.885Z,96.78
2019-03-21T05:26:30.063Z,96.21
2019-03-21T05:27:30.231Z,96.31
2019-03-21T05:28:30.403Z,96.21
2019-03-21T05:29:30.576Z,97.06
2019-03-21T05:30:30.748Z,96.88
2019-03-21T05:31:30.916Z,97.06
2019-03-21T05:32:31.087Z,97.06
2019-03-21T05:33:31.261Z,97.06
2019-03-21T05:34:31.420Z,96.83
2019-03-21T05:35:31.575Z,97.54
2019-03-21T05:36:31.739Z,97.30
2019-03-21T05:37:31.909Z,97.68
2019-03-21T05:38:32.094Z,97.68
2019-03-21T05:39:32.275Z,97.39
2019-03-21T05:40:32.437Z,98.20
2019-03-21T05:41:32.608Z,98.20
2019-03-21T05:42:32.771Z,98.30
2019-03-21T05:43:32.946Z,98.01
2019-03-21T05:44:33.123Z,98.20
2019-03-21T05:45:33.272Z,97.73
2019-03-21T05:46:33.439Z,97.54
2019-03-21T05:47:33.611Z,97.82
2019-03-21T05:48:33.776Z,97.44
2019-03-21T05:49:33.938Z,96.78
2019-03-21T05:50:34.101Z,96.88
2019-03-21T05:51:34.276Z,96.21
2019-03-21T05:52:34.439Z,96.40
2019-03-21T05:53:34.625Z,96.78
2019-03-21T05:54:34.786Z,96.54
2019-03-21T05:55:34.957Z,98.53
2019-03-21T05:56:35.128Z,99.29
2019-03-21T05:57:35.298Z,99.38
2019-03-21T05:58:35.467Z,99.29
2019-03-21T05:59:35.667Z,98.91
2019-03-21T06:00:35.801Z,99.19
2019-03-21T06:01:35.965Z,98.34
2019-03-21T06:02:36.138Z,98.58
2019-03-21T06:03:36.307Z,98.68
2019-03-21T06:04:36.482Z,98.77
2019-03-21T06:05:36.660Z,98.49
2019-03-21T06:06:36.824Z,98.72
2019-03-21T06:07:36.984Z,98.82
2019-03-21T06:08:37.214Z,98.91
2019-03-21T06:09:37.317Z,99.24
2019-03-21T06:10:37.480Z,98.68
2019-03-21T06:11:39.600Z,98.58
2019-03-21T06:12:38.507Z,97.92
2019-03-21T06:13:38.107Z,97.63
2019-03-21T06:14:38.297Z,96.73
2019-03-21T06:15:38.413Z,94.93
2019-03-21T06:16:38.643Z,93.65
2019-03-21T06:17:38.816Z,92.23
2019-03-21T06:18:38.892Z,90.48
2019-03-21T06:19:39.054Z,89.15
2019-03-21T06:20:39.221Z,87.01
2019-03-21T06:21:39.410Z,85.25
2019-03-21T06:22:39.574Z,83.92
2019-03-21T06:23:39.739Z,81.65
2019-03-21T06:24:39.903Z,80.35
2019-03-21T06:25:40.086Z,79.25
2019-03-21T06:26:40.233Z,77.83
2019-03-21T06:27:40.394Z,76.97
2019-03-21T06:28:40.574Z,76.31
2019-03-21T06:29:40.747Z,75.64
2019-03-21T06:30:40.912Z,76.40
2019-03-21T06:31:41.087Z,75.84
2019-03-21T06:32:41.257Z,75.45
2019-03-21T06:33:41.433Z,74.92
2019-03-21T06:34:41.603Z,74.73
2019-03-21T06:35:41.775Z,74.20
2019-03-21T06:36:41.950Z,73.15
2019-03-21T06:37:42.111Z,73.06
2019-03-21T06:38:42.287Z,72.39
2019-03-21T06:39:42.470Z,72.26
2019-03-21T06:40:42.627Z,71.72
2019-03-21T06:41:42.803Z,71.53
2019-03-21T06:42:43.029Z,72.11
2019-03-21T06:43:43.220Z,72.30
2019-03-21T06:44:43.371Z,71.72
2019-03-21T06:45:48.204Z,71.09
2019-03-21T06:46:49.317Z,70.30
2019-03-21T06:47:43.844Z,70.77
2019-03-21T06:48:44.078Z,70.90
2019-03-21T06:49:46.497Z,70.52
2019-03-21T06:50:44.379Z,70.20
2019-03-21T06:51:44.524Z,70.58
2019-03-21T06:52:44.736Z,69.48
2019-03-21T06:53:44.862Z,69.00
2019-03-21T06:54:45.046Z,68.43
2019-03-21T06:55:45.233Z,68.81
2019-03-21T06:56:45.421Z,68.71
2019-03-21T06:57:45.524Z,69.12
2019-03-21T06:58:45.691Z,71.31
2019-03-21T06:59:45.891Z,72.45
2019-03-21T07:00:46.082Z,72.83
2019-03-21T07:01:46.197Z,72.55
2019-03-21T07:02:46.338Z,72.58
2019-03-21T07:03:46.526Z,71.06
2019-03-21T07:04:46.733Z,70.87
2019-03-21T07:05:46.878Z,69.95
2019-03-21T07:06:47.051Z,69.38
2019-03-21T07:07:47.276Z,69.25
2019-03-21T07:08:47.404Z,69.10
2019-03-21T07:09:47.571Z,68.05
2019-03-21T07:10:47.724Z,67.70
2019-03-21T07:11:47.889Z,67.16
2019-03-21T07:12:48.071Z,65.92
2019-03-21T07:13:48.255Z,66.02
2019-03-21T07:14:48.375Z,65.36
2019-03-21T07:15:48.600Z,64.97
2019-03-21T07:16:59.804Z,65.48
2019-03-21T07:17:48.931Z,64.43
2019-03-21T07:18:49.164Z,63.67
2019-03-21T07:19:49.297Z,63.10
2019-03-21T07:20:49.479Z,64.05
2019-03-21T07:21:49.642Z,63.64
2019-03-21T07:22:49.811Z,63.76
2019-03-21T07:23:49.953Z,63.64
2019-03-21T07:24:50.167Z,63.73
2019-03-21T07:25:50.436Z,64.37
2019-03-21T07:26:50.498Z,65.32
2019-03-21T07:27:50.771Z,65.95
2019-03-21T07:28:50.907Z,67.47
2019-03-21T07:29:51.090Z,67.86
2019-03-21T07:30:51.251Z,68.81
2019-03-21T07:31:51.446Z,69.10
2019-03-21T07:32:52.471Z,69.10
2019-03-21T07:33:51.865Z,67.51
2019-03-21T07:34:51.998Z,67.29
2019-03-21T07:35:52.194Z,67.86
2019-03-21T07:36:52.389Z,67.32
2019-03-21T07:37:52.718Z,66.88
2019-03-21T07:38:52.719Z,66.11
2019-03-21T07:39:52.859Z,65.36
2019-03-21T07:40:53.039Z,64.97
2019-03-21T07:41:53.247Z,64.78
2019-03-21T07:42:53.419Z,65.58
2019-03-21T07:43:53.555Z,64.05
2019-03-21T07:44:53.759Z,64.28
2019-03-21T07:45:54.049Z,63.04
2019-03-21T07:46:54.160Z,63.04
2019-03-21T07:47:54.301Z,63.23
2019-03-21T07:48:54.496Z,62.56
2019-03-21T07:49:54.696Z,61.44
2019-03-21T07:50:54.838Z,61.07
2019-03-21T07:51:54.981Z,60.49
2019-03-21T07:52:55.218Z,60.39
2019-03-21T07:53:55.353Z,60.49
2019-03-21T07:54:55.509Z,60.49
2019-03-21T07:55:55.736Z,59.38
2019-03-21T07:56:55.941Z,59.28
2019-03-21T07:57:56.176Z,58.97
2019-03-21T07:58:57.851Z,59.82
2019-03-21T07:59:56.391Z,59.95
2019-03-21T08:00:56.576Z,58.80
2019-03-21T08:01:56.738Z,58.73
2019-03-21T08:02:56.908Z,57.97
2019-03-21T08:03:57.096Z,57.59
2019-03-21T08:04:57.271Z,57.31
2019-03-21T08:05:57.411Z,56.73
2019-03-21T08:06:57.589Z,57.46
2019-03-21T08:07:57.781Z,58.39
2019-03-21T08:08:57.941Z,59.25
2019-03-21T08:09:58.117Z,58.80
2019-03-21T08:10:58.420Z,57.68
2019-03-21T08:11:58.848Z,56.85
2019-03-21T08:12:59.119Z,55.99
2019-03-21T08:13:58.861Z,56.09
2019-03-21T08:14:58.948Z,55.93
2019-03-21T08:15:59.159Z,55.90
2019-03-21T08:16:59.376Z,56.21
2019-03-21T08:17:59.489Z,55.42
2019-03-21T08:18:59.702Z,55.42
2019-03-21T08:19:59.819Z,56.38
2019-03-21T08:21:00.292Z,55.90
2019-03-21T08:22:00.198Z,55.96
2019-03-21T08:23:00.486Z,56.54
2019-03-21T08:24:00.561Z,56.31
2019-03-21T08:25:00.775Z,55.35
2019-03-21T08:26:01.073Z,54.61
2019-03-21T08:27:01.079Z,53.88
2019-03-21T08:28:01.242Z,52.54
2019-03-21T08:29:01.472Z,52.77
2019-03-21T08:30:01.619Z,54.49
2019-03-21T08:31:01.760Z,55.00
2019-03-21T08:33:34.156Z,53.82
2019-03-21T08:34:34.320Z,53.59
2019-03-21T08:35:35.091Z,52.83
2019-03-21T08:36:35.551Z,51.87
2019-03-21T08:37:34.754Z,51.89
2019-03-21T08:38:34.915Z,51.48
2019-03-21T08:39:35.149Z,51.87
2019-03-21T08:40:35.365Z,51.75
2019-03-21T08:41:35.493Z,52.67
2019-03-21T08:42:35.625Z,53.66
2019-03-21T08:43:35.834Z,52.83
2019-03-21T08:44:36.003Z,51.79
2019-03-21T08:45:36.223Z,51.32
2019-03-21T08:46:36.376Z,51.39
2019-03-21T08:47:37.148Z,51.42
2019-03-21T08:48:36.788Z,50.87
2019-03-21T08:49:36.942Z,49.55
2019-03-21T08:50:37.142Z,49.55
2019-03-21T08:51:37.349Z,49.33
2019-03-21T08:52:37.461Z,49.45
2019-03-21T08:53:37.614Z,48.61
2019-03-21T08:54:37.791Z,47.85
2019-03-21T08:55:37.973Z,47.94
2019-03-21T08:56:38.235Z,47.68
2019-03-21T08:57:38.354Z,47.39
2019-03-21T08:58:38.592Z,47.39
2019-03-21T08:59:38.734Z,47.56
2019-03-21T09:01:39.096Z,46.62
2019-03-21T09:02:39.288Z,46.53
2019-03-21T09:03:39.563Z,46.70
2019-03-21T09:04:39.637Z,47.61
2019-03-21T09:05:39.808Z,46.74
2019-03-21T09:06:39.970Z,46.26
2019-03-21T09:07:40.257Z,46.53
2019-03-21T09:08:40.325Z,46.65
2019-03-21T09:09:40.537Z,46.45
2019-03-21T09:10:40.653Z,46.43
2019-03-21T09:11:40.838Z,47.49
2019-03-21T09:12:42.662Z,47.49
2019-03-21T09:13:41.213Z,46.74
2019-03-21T09:14:41.381Z,46.00
2019-03-21T09:15:41.557Z,45.81
2019-03-21T09:16:41.737Z,46.07
2019-03-21T09:17:41.926Z,46.19
2019-03-21T09:18:42.103Z,45.14
2019-03-21T09:19:42.291Z,45.15
2019-03-21T09:20:42.475Z,45.23
2019-03-21T09:21:42.664Z,44.94
2019-03-21T09:22:42.837Z,47.42
2019-03-21T09:23:43.008Z,50.10
2019-03-21T09:24:43.195Z,49.45
2019-03-21T09:25:43.375Z,49.33
2019-03-21T09:26:43.557Z,49.36
2019-03-21T09:27:43.756Z,49.10
2019-03-21T09:28:43.924Z,48.25
2019-03-21T09:29:53.099Z,47.39
2019-03-21T09:30:44.291Z,46.28
2019-03-21T09:31:44.473Z,46.45
2019-03-21T09:32:44.719Z,46.09
2019-03-21T09:33:44.874Z,45.71
2019-03-21T09:34:45.059Z,45.52
2019-03-21T09:35:45.244Z,44.77
2019-03-21T09:36:45.458Z,44.37
2019-03-21T09:37:45.598Z,45.15
2019-03-21T09:38:45.780Z,45.18
2019-03-21T09:39:45.972Z,44.77
2019-03-21T09:40:46.158Z,44.70
2019-03-21T09:41:46.330Z,43.95
2019-03-21T09:42:46.517Z,44.56
2019-03-21T09:43:46.700Z,44.37
2019-03-21T09:44:46.903Z,45.42
2019-03-21T09:45:47.100Z,45.64
2019-03-21T09:46:51.009Z,44.87
2019-03-21T09:47:47.449Z,44.12
2019-03-21T09:48:47.618Z,43.70
2019-03-21T09:49:47.797Z,44.68
2019-03-21T09:50:47.984Z,44.06
2019-03-21T09:51:48.166Z,44.65
2019-03-21T09:52:48.359Z,44.84
2019-03-21T09:53:48.533Z,44.58
2019-03-21T09:54:48.715Z,43.45
2019-03-21T09:55:48.899Z,42.18
2019-03-21T09:56:49.082Z,42.73
2019-03-21T09:57:49.254Z,43.33
2019-03-21T09:58:49.449Z,42.81
2019-03-21T09:59:49.615Z,43.48
2019-03-21T10:00:49.798Z,43.96
2019-03-21T10:01:49.987Z,44.17
2019-03-21T10:02:50.164Z,43.23
2019-03-21T10:03:50.343Z,42.77
2019-03-21T10:04:50.539Z,41.82
2019-03-21T10:05:51.202Z,41.43
2019-03-21T10:06:50.862Z,40.66
2019-03-21T10:07:51.045Z,40.66
2019-03-21T10:08:51.247Z,40.11
2019-03-21T10:09:51.414Z,40.11
2019-03-21T10:10:51.605Z,39.53
2019-03-21T10:11:51.781Z,39.26
2019-03-21T10:12:51.963Z,38.39
2019-03-21T10:13:52.148Z,37.91
2019-03-21T10:14:52.333Z,37.81
2019-03-21T10:15:52.535Z,36.95
2019-03-21T10:16:52.700Z,36.08
2019-03-21T10:17:52.877Z,36.10
2019-03-21T10:18:53.060Z,35.83
2019-03-21T10:19:53.247Z,35.64
2019-03-21T10:20:53.415Z,34.96
2019-03-21T10:21:53.607Z,34.84
2019-03-21T10:22:53.791Z,34.67
2019-03-21T10:23:53.974Z,33.51
2019-03-21T10:24:54.156Z,32.95
2019-03-21T10:25:54.399Z,31.99
2019-03-21T10:26:54.994Z,32.01
2019-03-21T10:27:54.696Z,32.39
2019-03-21T10:28:54.966Z,32.57
2019-03-21T10:29:55.158Z,33.05
2019-03-21T10:30:57.306Z,32.94
2019-03-21T10:31:55.403Z,33.63
2019-03-21T10:32:55.572Z,33.53
2019-03-21T10:33:55.812Z,33.07
2019-03-21T10:34:55.884Z,32.29
2019-03-21T10:35:56.085Z,32.29
2019-03-21T10:36:56.224Z,31.73
2019-03-21T10:37:56.414Z,31.54
2019-03-21T10:38:56.616Z,31.24
2019-03-21T10:39:56.769Z,31.51
2019-03-21T10:40:56.964Z,31.33
2019-03-21T10:41:57.138Z,31.04
2019-03-21T10:42:57.315Z,30.56
2019-03-21T10:43:57.499Z,30.56
2019-03-21T10:44:57.692Z,30.77
2019-03-21T10:45:57.870Z,31.12
2019-03-21T10:46:58.063Z,31.30
2019-03-21T10:47:58.260Z,32.36
2019-03-21T10:48:58.426Z,32.57
2019-03-21T10:49:58.623Z,33.29
2019-03-21T10:50:58.824Z,35.10
2019-03-21T10:51:58.979Z,35.68
2019-03-21T10:52:59.229Z,35.70
2019-03-21T10:53:59.274Z,35.04
2019-03-21T10:54:59.452Z,34.30
2019-03-21T10:55:59.622Z,33.17
2019-03-21T10:56:59.808Z,32.99
2019-03-21T10:57:59.986Z,31.75
2019-03-21T10:59:00.319Z,32.12
2019-03-21T11:00:01.794Z,32.21
2019-03-21T11:01:00.463Z,32.59
2019-03-21T11:02:07.319Z,32.70
2019-03-21T11:03:01.288Z,31.94
2019-03-21T11:04:01.674Z,31.65
2019-03-21T11:05:01.351Z,31.67
2019-03-21T11:06:02.062Z,31.10
2019-03-21T11:07:01.844Z,30.61
2019-03-21T11:08:02.810Z,30.61
2019-03-21T11:09:02.208Z,30.41
2019-03-21T11:10:02.385Z,31.38
2019-03-21T11:11:03.610Z,31.20
2019-03-21T11:12:03.098Z,30.51
2019-03-21T11:13:03.014Z,30.59
2019-03-21T11:14:03.135Z,31.07
2019-03-21T11:15:06.555Z,30.70
2019-03-21T11:16:03.689Z,30.59
2019-03-21T11:17:04.387Z,31.54
2019-03-21T11:18:03.946Z,31.93
2019-03-21T11:19:04.317Z,32.14
2019-03-21T11:20:04.115Z,31.62
2019-03-21T11:21:05.772Z,32.12
2019-03-21T11:22:06.663Z,31.75
2019-03-21T11:23:04.742Z,31.93
2019-03-21T11:24:04.923Z,32.12
2019-03-21T11:25:05.182Z,32.04
2019-03-21T11:26:05.303Z,32.01
2019-03-21T11:27:05.473Z,32.95
2019-03-21T11:28:05.674Z,33.34
2019-03-21T11:29:06.211Z,33.15
2019-03-21T11:30:15.682Z,33.13
2019-03-21T11:31:06.262Z,33.81
2019-03-21T11:32:06.808Z,33.73
2019-03-21T11:33:09.130Z,33.91
2019-03-21T11:34:11.946Z,34.17
2019-03-21T11:35:07.153Z,34.37
2019-03-21T11:36:08.837Z,34.64
2019-03-21T11:37:08.129Z,35.49
2019-03-21T11:38:07.848Z,35.85
2019-03-21T11:39:08.964Z,36.33
2019-03-21T11:40:08.467Z,36.83
2019-03-21T11:41:09.426Z,36.74
2019-03-21T11:42:09.037Z,36.91
2019-03-21T11:43:09.028Z,36.91
2019-03-21T11:44:09.003Z,37.18
2019-03-21T11:45:09.235Z,37.37
2019-03-21T11:46:09.236Z,37.57
2019-03-21T11:47:09.396Z,37.01
2019-03-21T11:48:09.574Z,37.01
2019-03-21T11:49:09.757Z,36.82
2019-03-21T11:50:09.941Z,37.01
2019-03-21T11:51:10.121Z,37.20
2019-03-21T11:52:18.156Z,37.27
2019-03-21T11:53:10.552Z,37.47
2019-03-21T11:54:10.728Z,37.39
2019-03-21T11:55:10.908Z,37.49
2019-03-21T11:56:13.094Z,37.39
2019-03-21T11:57:11.285Z,37.02
2019-03-21T11:58:11.473Z,37.30
2019-03-21T11:59:11.663Z,37.20
2019-03-21T12:00:11.845Z,37.39
2019-03-21T12:01:12.036Z,37.87
2019-03-21T12:02:12.234Z,38.07
2019-03-21T12:03:14.329Z,37.68
2019-03-21T12:04:14.224Z,37.95
2019-03-21T12:05:12.709Z,38.54
2019-03-21T12:06:12.897Z,38.35
2019-03-21T12:07:13.062Z,38.45
2019-03-21T12:08:13.236Z,38.26
2019-03-21T12:09:13.405Z,38.54
2019-03-21T12:10:13.628Z,39.11
2019-03-21T12:11:14.875Z,38.24
2019-03-21T12:12:15.977Z,39.01
2019-03-21T12:13:14.057Z,39.29
2019-03-21T12:14:16.405Z,39.49
2019-03-21T12:15:14.670Z,39.68
2019-03-21T12:16:14.624Z,40.05
2019-03-21T12:17:14.823Z,40.52
2019-03-21T12:18:15.066Z,40.81
2019-03-21T12:19:15.178Z,40.64
2019-03-21T12:20:15.364Z,40.55
2019-03-21T12:21:15.654Z,40.23
2019-03-21T12:22:15.724Z,40.72
2019-03-21T12:23:16.212Z,40.81
2019-03-21T12:24:16.921Z,41.00
2019-03-21T12:25:16.572Z,42.06
2019-03-21T12:26:17.062Z,41.67
2019-03-21T12:27:16.684Z,41.49
2019-03-21T12:28:16.857Z,41.87
2019-03-21T12:29:17.038Z,41.87
2019-03-21T12:30:17.329Z,41.67
2019-03-21T12:31:17.785Z,41.56
2019-03-21T12:32:17.594Z,41.87
2019-03-21T12:33:17.946Z,41.77
2019-03-21T12:34:17.957Z,41.96
2019-03-21T12:35:18.313Z,41.60
2019-03-21T12:36:18.354Z,41.12
2019-03-21T12:37:18.799Z,41.00
2019-03-21T12:38:18.568Z,41.10
2019-03-21T12:39:18.732Z,41.10
2019-03-21T12:40:18.914Z,41.58
2019-03-21T12:41:19.107Z,41.85
2019-03-21T12:42:19.263Z,43.10
2019-03-21T12:43:19.446Z,42.81
2019-03-21T12:44:19.633Z,42.79
2019-03-21T12:45:19.819Z,42.71
2019-03-21T12:46:19.959Z,42.43
2019-03-21T12:47:30.763Z,42.43
2019-03-21T12:48:20.338Z,42.61
2019-03-21T12:49:20.517Z,42.90
2019-03-21T12:50:20.710Z,42.88
2019-03-21T12:51:20.877Z,42.79
2019-03-21T12:52:21.055Z,42.79
2019-03-21T12:53:21.242Z,42.61
2019-03-21T12:54:21.429Z,42.81
2019-03-21T12:55:21.607Z,42.71
2019-03-21T12:56:21.833Z,42.79
2019-03-21T12:57:21.949Z,43.07
2019-03-21T12:58:22.119Z,43.29
2019-03-21T12:59:22.303Z,43.38
2019-03-21T13:00:22.482Z,44.06
2019-03-21T13:01:22.667Z,44.34
2019-03-21T13:02:31.985Z,43.29